createdAt,value
2023-05-12T00:02:42.338Z,98441.06
2023-05-12T00:05:44.076Z,98443.13
2023-05-12T00:08:47.808Z,98444.25
2023-05-12T00:11:49.660Z,98437.16
2023-05-12T00:14:51.363Z,98445.16
2023-05-12T00:17:54.588Z,98437.41
2023-05-12T00:20:56.230Z,98447.22
2023-05-12T00:23:58.261Z,98444.81
2023-05-12T00:27:03.554Z,98441.97
2023-05-12T00:30:06.129Z,98447.22
2023-05-12T00:33:09.417Z,98446.53
2023-05-12T00:36:11.775Z,98449.25
2023-05-12T00:39:13.657Z,98447.63
2023-05-12T00:42:15.332Z,98452.00
2023-05-12T00:45:17.318Z,98446.84
2023-05-12T00:48:20.596Z,98453.91
2023-05-12T00:51:22.243Z,98452.19
2023-05-12T00:54:23.932Z,98449.59
2023-05-12T00:57:27.963Z,98453.03
2023-05-12T01:00:30.465Z,98451.31
2023-05-12T01:03:34.191Z,98456.81
2023-05-12T01:06:40.022Z,98454.28
2023-05-12T01:09:43.137Z,98449.75
2023-05-12T01:12:45.736Z,98457.75
2023-05-12T01:15:48.287Z,98458.75
2023-05-12T01:18:53.421Z,98452.47
2023-05-12T01:21:55.934Z,98457.75
2023-05-12T01:24:59.120Z,98462.69
2023-05-12T01:28:04.333Z,98461.69
2023-05-12T01:31:07.473Z,98459.03
2023-05-12T01:34:14.275Z,98463.34
2023-05-12T01:37:16.332Z,98456.19
2023-05-12T01:40:19.520Z,98457.91
2023-05-12T01:43:22.778Z,98456.09
2023-05-12T01:46:24.731Z,98456.19
2023-05-12T01:49:28.847Z,98457.13
2023-05-12T01:52:30.758Z,98466.69
2023-05-12T01:55:32.598Z,98466.69
2023-05-12T01:58:35.699Z,98470.16
2023-05-12T02:01:37.652Z,98463.09
2023-05-12T02:04:40.625Z,98470.31
2023-05-12T02:07:42.582Z,98475.66
2023-05-12T02:10:45.831Z,98470.56
2023-05-12T02:13:49.295Z,98477.84
2023-05-12T02:16:52.858Z,98476.03
2023-05-12T02:19:56.155Z,98478.00
2023-05-12T02:22:58.114Z,98473.84
2023-05-12T02:25:59.878Z,98472.97
2023-05-12T02:29:02.971Z,98477.44
2023-05-12T02:32:05.132Z,98476.59
2023-05-12T02:35:07.675Z,98480.06
2023-05-12T02:38:11.531Z,98472.09
2023-05-12T02:41:13.495Z,98473.91
2023-05-12T02:44:17.918Z,98474.78
2023-05-12T02:47:19.629Z,98470.47
2023-05-12T02:50:21.967Z,98467.72
2023-05-12T02:53:24.066Z,98463.25
2023-05-12T02:56:26.448Z,98466.78
2023-05-12T02:59:30.518Z,98461.44
2023-05-12T03:02:32.453Z,98470.25
2023-05-12T03:05:34.384Z,98472.75
2023-05-12T03:08:36.457Z,98477.16
2023-05-12T03:11:41.135Z,98471.81
2023-05-12T03:14:44.603Z,98481.56
2023-05-12T03:17:46.472Z,98481.47
2023-05-12T03:20:48.399Z,98479.75
2023-05-12T03:23:50.252Z,98479.75
2023-05-12T03:26:51.943Z,98478.88
2023-05-12T03:29:55.081Z,98469.06
2023-05-12T03:32:57.208Z,98478.63
2023-05-12T03:35:59.244Z,98474.97
2023-05-12T03:39:03.106Z,98477.63
2023-05-12T03:42:05.142Z,98476.69
2023-05-12T03:45:09.525Z,98471.19
2023-05-12T03:48:11.344Z,98482.56
2023-05-12T03:51:13.096Z,98477.16
2023-05-12T03:54:17.232Z,98477.16
2023-05-12T03:57:18.860Z,98472.69
2023-05-12T04:00:22.412Z,98469.28
2023-05-12T04:03:24.453Z,98475.66
2023-05-12T04:06:26.308Z,98476.59
2023-05-12T04:09:28.050Z,98482.88
2023-05-12T04:12:30.225Z,98477.72
2023-05-12T04:15:33.734Z,98486.50
2023-05-12T04:18:36.924Z,98498.75
2023-05-12T04:21:38.675Z,98499.44
2023-05-12T04:24:41.061Z,98495.88
2023-05-12T04:27:42.954Z,98499.44
2023-05-12T04:30:46.248Z,98500.34
2023-05-12T04:33:48.596Z,98512.03
2023-05-12T04:36:50.441Z,98516.50
2023-05-12T04:39:52.754Z,98513.91
2023-05-12T04:42:54.966Z,98515.81
2023-05-12T04:45:59.969Z,98532.69
2023-05-12T04:49:02.473Z,98522.25
2023-05-12T04:52:05.824Z,98509.97
2023-05-12T04:55:08.801Z,98518.94
2023-05-12T04:58:11.303Z,98524.84
2023-05-12T05:01:17.102Z,98533.47
2023-05-12T05:04:19.553Z,98522.72
2023-05-12T05:07:21.519Z,98542.06
2023-05-12T05:10:23.529Z,98545.19
2023-05-12T05:13:25.382Z,98548.59
2023-05-12T05:16:28.851Z,98537.81
2023-05-12T05:22:39.481Z,98548.25
2023-05-12T05:25:42.203Z,98554.41
2023-05-12T05:28:45.400Z,98555.19
2023-05-12T05:31:48.547Z,98554.41
2023-05-12T05:34:50.789Z,98558.00
2023-05-12T05:37:54.606Z,98561.59
2023-05-12T05:40:58.029Z,98569.63
2023-05-12T05:44:01.645Z,98573.13
2023-05-12T05:47:06.177Z,98571.84
2023-05-12T05:50:08.924Z,98580.41
2023-05-12T05:53:13.279Z,98575.75
2023-05-12T05:56:15.651Z,98583.59
2023-05-12T05:59:17.703Z,98580.81
2023-05-12T06:02:23.294Z,98589.25
2023-05-12T06:05:24.970Z,98595.25
2023-05-12T06:08:26.746Z,98598.63
2023-05-12T06:11:29.489Z,98600.22
2023-05-12T06:14:31.288Z,98604.53
2023-05-12T06:17:34.640Z,98603.44
2023-05-12T06:20:37.376Z,98601.53
2023-05-12T06:23:39.107Z,98607.75
2023-05-12T06:26:41.029Z,98609.09
2023-05-12T06:29:42.792Z,98604.88
2023-05-12T06:32:46.336Z,98613.16
2023-05-12T06:35:48.497Z,98608.94
2023-05-12T06:38:51.027Z,98605.13
2023-05-12T06:41:52.686Z,98610.84
2023-05-12T06:44:56.082Z,98609.63
2023-05-12T06:47:59.332Z,98616.28
2023-05-12T06:51:02.406Z,98618.78
2023-05-12T06:54:04.010Z,98612.66
2023-05-12T06:57:06.081Z,98619.91
2023-05-12T07:00:10.498Z,98619.31
2023-05-12T07:03:13.925Z,98609.63
2023-05-12T07:06:15.815Z,98603.75
2023-05-12T07:09:18.858Z,98598.94
2023-05-12T07:12:20.958Z,98606.59
2023-05-12T07:15:23.091Z,98603.75
2023-05-12T07:18:26.586Z,98603.03
2023-05-12T07:21:29.640Z,98603.66
2023-05-12T07:24:31.322Z,98602.25
2023-05-12T07:27:33.078Z,98608.13
2023-05-12T07:30:34.942Z,98604.03
2023-05-12T07:33:38.673Z,98603.53
2023-05-12T07:36:40.519Z,98599.72
2023-05-12T07:39:42.089Z,98599.16
2023-05-12T07:42:44.133Z,98600.91
2023-05-12T07:45:46.114Z,98600.03
2023-05-12T07:48:49.207Z,98608.41
2023-05-12T07:51:50.928Z,98599.59
2023-05-12T07:54:52.968Z,98604.94
2023-05-12T07:57:54.787Z,98594.88
2023-05-12T08:00:59.028Z,98604.00
2023-05-12T08:04:01.966Z,98592.63
2023-05-12T08:07:03.895Z,98599.94
2023-05-12T08:10:06.564Z,98600.97
2023-05-12T08:13:08.286Z,98601.06
2023-05-12T08:16:09.853Z,98595.81
2023-05-12T08:19:13.200Z,98605.41
2023-05-12T08:22:14.938Z,98602.88
2023-05-12T08:25:16.713Z,98603.56
2023-05-12T08:28:18.619Z,98605.75
2023-05-12T08:31:21.038Z,98607.84
2023-05-12T08:34:24.399Z,98611.66
2023-05-12T08:37:26.627Z,98615.09
2023-05-12T08:40:30.323Z,98607.81
2023-05-12T08:43:38.006Z,98617.94
2023-05-12T08:46:39.823Z,98614.66
2023-05-12T08:49:44.168Z,98617.50
2023-05-12T08:52:46.029Z,98617.38
2023-05-12T08:56:01.150Z,98613.97
2023-05-12T08:59:09.970Z,98615.94
2023-05-12T09:02:11.934Z,98614.50
2023-05-12T09:05:15.250Z,98612.94
2023-05-12T09:08:16.961Z,98615.16
2023-05-12T09:11:20.438Z,98619.69
2023-05-12T09:14:25.451Z,98617.75
2023-05-12T09:17:27.322Z,98625.06
2023-05-12T09:20:31.858Z,98628.94
2023-05-12T09:23:35.272Z,98628.09
2023-05-12T09:26:45.312Z,98629.38
2023-05-12T09:29:59.258Z,98632.41
2023-05-12T09:33:08.488Z,98626.59
2023-05-12T09:36:11.765Z,98621.09
2023-05-12T09:39:13.554Z,98629.50
2023-05-12T09:42:15.818Z,98627.03
2023-05-12T09:45:17.554Z,98632.22
2023-05-12T09:48:19.200Z,98628.56
2023-05-12T09:51:22.335Z,98631.88
2023-05-12T09:54:24.406Z,98627.13
2023-05-12T09:57:26.388Z,98619.13
2023-05-12T10:00:43.281Z,98629.09
2023-05-12T10:03:51.169Z,98619.56
2023-05-12T10:06:56.421Z,98620.84
2023-05-12T10:09:59.831Z,98622.13
2023-05-12T10:13:01.862Z,98623.91
2023-05-12T10:16:06.980Z,98624.31
2023-05-12T10:19:09.063Z,98621.66
2023-05-12T10:22:15.869Z,98629.75
2023-05-12T10:25:17.921Z,98624.56
2023-05-12T10:28:20.364Z,98632.84
2023-05-12T10:31:23.070Z,98625.44
2023-05-12T10:34:30.889Z,98626.50
2023-05-12T10:37:34.996Z,98617.66
2023-05-12T10:40:37.111Z,98630.84
2023-05-12T10:43:39.463Z,98630.03
2023-05-12T10:46:42.002Z,98627.94
2023-05-12T10:49:44.117Z,98634.94
2023-05-12T10:52:54.590Z,98635.72
2023-05-12T10:55:57.039Z,98629.06
2023-05-12T10:59:10.218Z,98634.72
2023-05-12T11:02:15.801Z,98639.03
2023-05-12T11:05:17.984Z,98632.28
2023-05-12T11:08:21.610Z,98640.38
2023-05-12T11:11:25.018Z,98629.06
2023-05-12T11:14:27.343Z,98630.91
2023-05-12T11:17:29.329Z,98625.34
2023-05-12T11:20:31.299Z,98634.94
2023-05-12T11:23:37.887Z,98632.81
2023-05-12T11:26:40.851Z,98630.00
2023-05-12T11:29:42.808Z,98630.41
2023-05-12T11:32:44.677Z,98633.63
2023-05-12T11:35:46.830Z,98636.91
2023-05-12T11:38:50.627Z,98634.63
2023-05-12T11:41:59.248Z,98639.25
2023-05-12T11:45:02.058Z,98642.63
2023-05-12T11:51:35.047Z,98641.56
2023-05-12T11:54:38.963Z,98638.28
2023-05-12T11:57:45.203Z,98637.34
2023-05-12T12:00:47.431Z,98634.25
2023-05-12T12:03:50.574Z,98645.56
2023-05-12T12:06:52.322Z,98643.34
2023-05-12T12:09:56.365Z,98643.34
2023-05-12T12:12:59.512Z,98656.91
2023-05-12T12:16:01.590Z,98652.75
2023-05-12T12:19:03.226Z,98656.19
2023-05-12T12:22:05.202Z,98653.13
2023-05-12T12:25:09.074Z,98655.06
2023-05-12T12:28:11.139Z,98654.56
2023-05-12T12:31:14.433Z,98655.81
2023-05-12T12:34:16.323Z,98647.53
2023-05-12T12:37:18.386Z,98655.09
2023-05-12T12:40:21.454Z,98646.81
2023-05-12T12:43:23.334Z,98645.84
2023-05-12T12:46:25.057Z,98635.16
2023-05-12T12:49:27.542Z,98640.75
2023-05-12T12:52:29.123Z,98640.22
2023-05-12T12:55:32.369Z,98639.84
2023-05-12T12:58:34.036Z,98637.19
2023-05-12T13:01:36.054Z,98634.63
2023-05-12T13:04:37.724Z,98639.63
2023-05-12T13:07:39.467Z,98634.25
2023-05-12T13:10:43.677Z,98639.72
2023-05-12T13:13:45.890Z,98637.59
2023-05-12T13:16:47.575Z,98630.53
2023-05-12T13:19:49.469Z,98634.31
2023-05-12T13:22:51.280Z,98634.03
2023-05-12T13:25:54.461Z,98635.50
2023-05-12T13:28:56.141Z,98634.81
2023-05-12T13:31:58.055Z,98636.53
2023-05-12T13:35:00.151Z,98635.06
2023-05-12T13:38:02.075Z,98633.78
2023-05-12T13:41:05.171Z,98635.91
2023-05-12T13:44:06.821Z,98638.66
2023-05-12T13:47:09.408Z,98638.09
2023-05-12T13:50:11.091Z,98643.66
2023-05-12T13:53:13.505Z,98640.56
2023-05-12T13:56:17.080Z,98639.91
2023-05-12T13:59:18.857Z,98634.88
2023-05-12T14:02:22.089Z,98635.38
2023-05-12T14:05:24.631Z,98636.38
2023-05-12T14:08:26.575Z,98639.34
2023-05-12T14:11:29.877Z,98634.72
2023-05-12T14:14:35.835Z,98633.78
2023-05-12T14:17:37.869Z,98627.78
2023-05-12T14:20:39.794Z,98631.53
2023-05-12T14:23:41.837Z,98632.56
2023-05-12T14:26:49.771Z,98629.47
2023-05-12T14:29:51.513Z,98633.53
2023-05-12T14:32:53.747Z,98631.53
2023-05-12T14:36:05.808Z,98637.09
2023-05-12T14:39:09.822Z,98633.25
2023-05-12T14:42:13.350Z,98632.16
2023-05-12T14:45:15.155Z,98637.72
2023-05-12T14:48:16.869Z,98633.16
2023-05-12T14:51:21.339Z,98636.50
2023-05-12T14:54:25.900Z,98629.59
2023-05-12T14:57:29.341Z,98636.50
2023-05-12T15:00:31.663Z,98634.75
2023-05-12T15:03:33.932Z,98637.72
2023-05-12T15:06:35.993Z,98638.88
2023-05-12T15:09:37.596Z,98639.38
2023-05-12T15:12:40.761Z,98636.56
2023-05-12T15:15:42.420Z,98640.00
2023-05-12T15:18:45.014Z,98643.97
2023-05-12T15:21:47.013Z,98645.84
2023-05-12T15:24:48.887Z,98647.75
2023-05-12T15:27:51.890Z,98630.22
2023-05-12T15:30:58.323Z,98633.78
2023-05-12T15:34:00.656Z,98636.44
2023-05-12T15:37:02.525Z,98641.81
2023-05-12T15:40:05.357Z,98639.84
2023-05-12T15:43:08.556Z,98632.97
2023-05-12T15:46:11.550Z,98631.34
2023-05-12T15:49:13.561Z,98629.63
2023-05-12T15:52:15.225Z,98633.91
2023-05-12T15:55:17.135Z,98638.19
2023-05-12T15:58:20.000Z,98641.00
2023-05-12T16:01:22.692Z,98641.00
2023-05-12T16:04:25.235Z,98638.72
2023-05-12T16:07:31.091Z,98642.56
2023-05-12T16:10:34.923Z,98635.47
2023-05-12T16:13:37.988Z,98639.53
2023-05-12T16:16:43.254Z,98632.28
2023-05-12T16:19:45.212Z,98632.97
2023-05-12T16:22:47.122Z,98636.41
2023-05-12T16:25:49.000Z,98637.88
2023-05-12T16:28:52.208Z,98637.22
2023-05-12T16:31:53.936Z,98631.88
2023-05-12T16:34:56.786Z,98632.91
2023-05-12T16:37:58.391Z,98634.69
2023-05-12T16:41:00.160Z,98633.59
2023-05-12T16:44:03.211Z,98627.06
2023-05-12T16:47:05.469Z,98637.56
2023-05-12T16:50:07.970Z,98634.63
2023-05-12T16:53:09.968Z,98632.81
2023-05-12T16:56:12.167Z,98626.69
2023-05-12T16:59:15.545Z,98635.44
2023-05-12T17:02:17.406Z,98635.72
2023-05-12T17:05:19.576Z,98636.47
2023-05-12T17:08:21.698Z,98650.13
2023-05-12T17:11:25.551Z,98641.25
2023-05-12T17:14:28.802Z,98644.59
2023-05-12T17:17:30.926Z,98643.94
2023-05-12T17:20:32.624Z,98639.91
2023-05-12T17:23:34.821Z,98645.81
2023-05-12T17:26:36.923Z,98646.63
2023-05-12T17:29:40.456Z,98649.44
2023-05-12T17:32:42.930Z,98650.09
2023-05-12T17:35:53.572Z,98650.19
2023-05-12T17:39:05.839Z,98649.19
2023-05-12T17:42:07.675Z,98652.00
2023-05-12T17:45:11.665Z,98662.69
2023-05-12T17:48:13.923Z,98657.25
2023-05-12T17:51:16.517Z,98656.75
2023-05-12T17:54:28.667Z,98656.72
2023-05-12T17:57:34.657Z,98662.47
2023-05-12T18:00:37.893Z,98663.06
2023-05-12T18:03:39.947Z,98662.69
2023-05-12T18:06:41.683Z,98675.97
2023-05-12T18:09:43.537Z,98675.72
2023-05-12T18:12:45.160Z,98674.69
2023-05-12T18:15:50.596Z,98678.81
2023-05-12T18:18:53.138Z,98681.56
2023-05-12T18:21:54.876Z,98682.13
2023-05-12T18:24:56.534Z,98672.00
2023-05-12T18:27:58.628Z,98681.00
2023-05-12T18:31:09.233Z,98686.06
2023-05-12T18:34:17.582Z,98683.09
2023-05-12T18:37:19.462Z,98687.41
2023-05-12T18:40:21.238Z,98690.06
2023-05-12T18:43:23.035Z,98692.97
2023-05-12T18:46:26.139Z,98693.63
2023-05-12T18:49:28.164Z,98697.53
2023-05-12T18:52:29.741Z,98700.31
2023-05-12T18:55:31.273Z,98701.81
2023-05-12T18:58:33.179Z,98696.31
2023-05-12T19:01:36.428Z,98697.69
2023-05-12T19:04:38.311Z,98702.94
2023-05-12T19:07:40.091Z,98704.75
2023-05-12T19:10:47.514Z,98706.13
2023-05-12T19:13:50.807Z,98712.78
2023-05-12T19:16:54.261Z,98712.97
2023-05-12T19:19:55.864Z,98720.28
2023-05-12T19:22:57.464Z,98719.50
2023-05-12T19:25:59.199Z,98720.56
2023-05-12T19:29:02.081Z,98726.16
2023-05-12T19:32:05.927Z,98720.72
2023-05-12T19:35:10.617Z,98724.19
2023-05-12T19:38:12.438Z,98730.69
2023-05-12T19:41:13.973Z,98732.34
2023-05-12T19:44:15.446Z,98735.41
2023-05-12T19:47:19.006Z,98723.03
2023-05-12T19:50:21.266Z,98735.41
2023-05-12T19:53:26.891Z,98731.84
2023-05-12T19:56:29.389Z,98742.72
2023-05-12T19:59:31.515Z,98739.34
2023-05-12T20:02:34.786Z,98739.53
2023-05-12T20:05:37.703Z,98745.59
2023-05-12T20:08:39.397Z,98751.03
2023-05-12T20:11:40.997Z,98752.78
2023-05-12T20:14:43.725Z,98752.22
2023-05-12T20:17:47.150Z,98751.16
2023-05-12T20:20:49.394Z,98743.19
2023-05-12T20:23:51.178Z,98753.94
2023-05-12T20:26:53.158Z,98761.44
2023-05-12T20:29:54.813Z,98756.44
2023-05-12T20:32:58.396Z,98763.91
2023-05-12T20:36:00.050Z,98751.63
2023-05-12T20:39:01.704Z,98757.69
2023-05-12T20:42:04.314Z,98758.91
2023-05-12T20:45:06.653Z,98759.56
2023-05-12T20:48:10.194Z,98759.88
2023-05-12T20:51:12.398Z,98759.31
2023-05-12T20:54:18.004Z,98760.63
2023-05-12T20:57:20.349Z,98755.16
2023-05-12T21:00:22.677Z,98763.66
2023-05-12T21:03:27.448Z,98757.50
2023-05-12T21:06:30.084Z,98756.56
2023-05-12T21:09:33.640Z,98762.88
2023-05-12T21:12:35.731Z,98756.19
2023-05-12T21:15:37.290Z,98767.94
2023-05-12T21:18:40.935Z,98767.06
2023-05-12T21:21:42.998Z,98771.69
2023-05-12T21:24:44.630Z,98761.13
2023-05-12T21:27:48.339Z,98769.09
2023-05-12T21:30:51.048Z,98778.13
2023-05-12T21:33:54.300Z,98774.66
2023-05-12T21:36:56.451Z,98774.81
2023-05-12T21:39:58.256Z,98777.03
2023-05-12T21:43:00.135Z,98780.81
2023-05-12T21:46:02.328Z,98777.28
2023-05-12T21:49:05.387Z,98773.81
2023-05-12T21:52:07.572Z,98778.53
2023-05-12T21:55:09.729Z,98768.03
2023-05-12T21:58:11.841Z,98774.66
2023-05-12T22:01:14.563Z,98774.03
2023-05-12T22:04:21.998Z,98776.66
2023-05-12T22:07:23.638Z,98777.59
2023-05-12T22:10:30.914Z,98777.53
2023-05-12T22:13:32.804Z,98780.97
2023-05-12T22:16:41.380Z,98781.94
2023-05-12T22:19:45.740Z,98775.78
2023-05-12T22:22:47.506Z,98777.53
2023-05-12T22:25:49.579Z,98780.28
2023-05-12T22:28:51.426Z,98781.13
2023-05-12T22:31:53.157Z,98782.09
2023-05-12T22:34:56.464Z,98783.91
2023-05-12T22:37:59.082Z,98780.38
2023-05-12T22:41:01.056Z,98783.81
2023-05-12T22:44:03.317Z,98789.28
2023-05-12T22:47:06.270Z,98792.06
2023-05-12T22:50:10.215Z,98788.50
2023-05-12T22:53:12.019Z,98787.75
2023-05-12T22:56:13.614Z,98790.50
2023-05-12T22:59:15.804Z,98801.25
2023-05-12T23:02:17.979Z,98781.84
2023-05-12T23:05:21.277Z,98787.59
2023-05-12T23:08:23.055Z,98786.72
2023-05-12T23:11:26.052Z,98784.13
2023-05-12T23:14:28.433Z,98783.28
2023-05-12T23:17:30.176Z,98778.78
2023-05-12T23:20:33.980Z,98782.41
2023-05-12T23:23:35.958Z,98777.81
2023-05-12T23:26:37.857Z,98785.09
2023-05-12T23:29:39.474Z,98776.25
2023-05-12T23:32:42.471Z,98781.03
2023-05-12T23:35:49.818Z,98779.97
2023-05-12T23:39:11.909Z,98773.56
2023-05-12T23:42:13.677Z,98778.16
2023-05-12T23:45:15.931Z,98779.28
2023-05-12T23:48:17.740Z,98779.44
2023-05-12T23:51:21.331Z,98777.56
2023-05-12T23:54:23.086Z,98778.53
2023-05-12T23:57:24.973Z,98781.34
